Time;durP1;ratioP1;P1;durP2;ratioP2;P2;SDS_P1;SDS_P2;PMS_P1;PMS_P2;Temp;Humidity;BMP_temperature;BMP_pressure;BME280_temperature;BME280_humidity;BME280_pressure;Samples;Min_cycle;Max_cycle;Signal;HPM_P1;HPM_P2
2022/01/03 15:17:53;;;;;;;2.65;2.45;;;;;;;;;;7370839;19;132695;-15
2022/01/03 15:20:28;;;;;;;2.72;2.63;;;;;;;;;;7368122;19;153430;-20
2022/01/03 15:23:01;;;;;;;2.60;2.47;;;;;;;;;;7367349;19;161820;-14
2022/01/03 15:25:32;;;;;;;2.78;2.67;;;;;;;;;;7364653;19;163478;-15
2022/01/03 15:28:04;;;;;;;2.90;2.70;;;;;;;;;;7368826;19;153977;-15
2022/01/03 15:30:37;;;;;;;2.92;2.83;;;;;;;;;;7364867;19;153757;-15
2022/01/03 15:33:29;;;;;;;2.70;2.50;;;;;;;;;;7364796;19;161834;-15
2022/01/03 15:36:01;;;;;;;2.63;2.50;;;;;;;;;;7361072;19;163065;-15
2022/01/03 15:38:33;;;;;;;2.47;2.38;;;;;;;;;;7362612;19;153888;-15
2022/01/03 15:41:04;;;;;;;2.05;1.95;;;;;;;;;;7364282;19;153575;-15
2022/01/03 15:43:35;;;;;;;2.33;2.22;;;;;;;;;;7363437;19;162599;-15
2022/01/03 15:46:09;;;;;;;2.47;2.38;;;;;;;;;;7362891;19;162606;-15
2022/01/03 15:49:06;;;;;;;2.45;2.35;;;;;;;;;;7364294;19;155377;-16
2022/01/03 15:51:37;;;;;;;2.42;2.30;;;;;;;;;;7366552;19;153534;-15
2022/01/03 15:54:09;;;;;;;2.20;2.10;;;;;;;;;;7363162;19;161970;-16
2022/01/03 15:56:41;;;;;;;2.35;2.25;;;;;;;;;;7367721;19;163003;-15
2022/01/03 15:59:14;;;;;;;2.53;2.33;;;;;;;;;;7366330;19;154017;-15
2022/01/03 16:01:48;;;;;;;2.40;2.30;;;;;;;;;;7367526;19;153792;-15
2022/01/03 16:04:22;;;;;;;2.35;2.25;;;;;;;;;;7367326;19;161947;-15
2022/01/03 16:06:54;;;;;;;2.40;2.30;;;;;;;;;;7361665;19;162363;-16
2022/01/03 16:09:25;;;;;;;2.35;2.25;;;;;;;;;;7363349;19;153924;-15
2022/01/03 16:11:57;;;;;;;2.45;2.22;;;;;;;;;;7363762;19;153913;-15
2022/01/03 16:14:28;;;;;;;2.33;2.22;;;;;;;;;;7365487;19;161571;-15
2022/01/03 16:17:00;;;;;;;2.25;2.15;;;;;;;;;;7355736;19;162164;-15
2022/01/03 16:19:35;;;;;;;2.55;2.45;;;;;;;;;;7336904;19;154039;-16
2022/01/03 16:22:07;;;;;;;2.35;2.25;;;;;;;;;;7337205;19;153612;-15
2022/01/03 16:24:38;;;;;;;2.20;2.10;;;;;;;;;;7336913;19;161978;-16
2022/01/03 16:27:10;;;;;;;2.22;2.13;;;;;;;;;;7334130;19;162431;-15
2022/01/03 16:29:41;;;;;;;2.60;2.50;;;;;;;;;;7334347;19;153991;-16
2022/01/03 16:32:13;;;;;;;2.78;2.67;;;;;;;;;;7336850;19;154115;-15
2022/01/03 16:34:46;;;;;;;2.13;2.08;;;;;;;;;;7333084;19;161964;-15
2022/01/03 16:37:18;;;;;;;2.50;2.40;;;;;;;;;;7336674;19;162386;-15
2022/01/03 16:39:50;;;;;;;2.60;2.50;;;;;;;;;;7335709;19;153968;-15
2022/01/03 16:42:23;;;;;;;2.30;2.20;;;;;;;;;;7335385;19;153463;-15
2022/01/03 16:44:57;;;;;;;2.40;2.30;;;;;;;;;;7334152;19;162049;-16
2022/01/03 16:47:32;;;;;;;2.10;2.00;;;;;;;;;;7333696;19;162512;-16
2022/01/03 16:50:09;;;;;;;2.40;2.30;;;;;;;;;;7335764;19;154285;-16
2022/01/03 16:52:50;;;;;;;2.20;2.10;;;;;;;;;;7335433;19;153683;-15
2022/01/03 16:55:24;;;;;;;2.47;2.38;;;;;;;;;;7333979;19;162511;-15
2022/01/03 16:57:55;;;;;;;2.15;2.05;;;;;;;;;;7333948;19;162406;-15
2022/01/03 17:00:27;;;;;;;2.25;2.15;;;;;;;;;;7335416;19;153950;-15
2022/01/03 17:02:58;;;;;;;2.30;2.20;;;;;;;;;;7335074;19;153544;-16
2022/01/03 17:05:33;;;;;;;2.10;2.00;;;;;;;;;;7334730;19;162139;-15
2022/01/03 17:08:05;;;;;;;2.13;2.03;;;;;;;;;;7332238;19;162520;-16
2022/01/03 17:10:36;;;;;;;2.20;2.10;;;;;;;;;;7334679;19;154197;-17
2022/01/03 17:13:08;;;;;;;2.38;2.20;;;;;;;;;;7335723;19;153515;-18
2022/01/03 17:15:39;;;;;;;2.15;2.10;;;;;;;;;;7331638;19;161832;-15
2022/01/03 17:18:10;;;;;;;2.30;2.20;;;;;;;;;;7336512;19;162534;-15
2022/01/03 17:20:44;;;;;;;2.17;2.08;;;;;;;;;;7332600;19;153994;-15
2022/01/03 17:23:15;;;;;;;2.35;2.25;;;;;;;;;;7334089;19;153533;-17
2022/01/03 17:25:47;;;;;;;2.10;2.10;;;;;;;;;;7335846;19;161868;-16
2022/01/03 17:28:20;;;;;;;2.45;2.28;;;;;;;;;;7331509;19;162135;-16
2022/01/03 17:30:52;;;;;;;2.00;1.90;;;;;;;;;;7332517;19;154493;-15
2022/01/03 17:33:24;;;;;;;2.47;2.38;;;;;;;;;;7333865;19;153672;-15
2022/01/03 17:35:57;;;;;;;1.92;1.83;;;;;;;;;;7334061;19;162364;-17
2022/01/03 17:38:29;;;;;;;2.20;2.10;;;;;;;;;;7332527;19;162508;-15
2022/01/03 17:41:00;;;;;;;2.40;2.25;;;;;;;;;;7332527;19;154091;-15
2022/01/03 17:43:31;;;;;;;2.05;2.03;;;;;;;;;;7334962;19;153612;-15
2022/01/03 17:46:03;;;;;;;2.00;2.00;;;;;;;;;;7333738;19;162024;-16
2022/01/03 17:48:37;;;;;;;2.30;2.20;;;;;;;;;;7330167;19;162561;-16
2022/01/03 17:51:17;;;;;;;3.13;2.92;;;;;;;;;;7335299;19;154005;-16
2022/01/03 17:53:55;;;;;;;3.10;3.00;;;;;;;;;;7334425;19;154087;-15
2022/01/03 17:56:29;;;;;;;2.60;2.47;;;;;;;;;;7330846;19;161646;-16
2022/01/03 17:59:01;;;;;;;2.30;2.20;;;;;;;;;;7332181;19;163086;-15
2022/01/03 18:01:32;;;;;;;2.38;2.28;;;;;;;;;;7327532;19;154258;-16
2022/01/03 18:04:04;;;;;;;2.33;2.22;;;;;;;;;;7332587;19;153529;-15
2022/01/03 18:06:38;;;;;;;2.42;2.33;;;;;;;;;;7333684;19;162199;-15
2022/01/03 18:09:09;;;;;;;2.50;2.40;;;;;;;;;;7330041;19;162384;-16
2022/01/03 18:11:41;;;;;;;2.65;2.55;;;;;;;;;;7326423;19;153923;-16
2022/01/03 18:14:12;;;;;;;2.40;2.30;;;;;;;;;;7331981;19;153453;-15
2022/01/03 18:16:43;;;;;;;3.67;3.47;;;;;;;;;;7330207;19;161982;-15
2022/01/03 18:19:15;;;;;;;2.90;2.70;;;;;;;;;;7333078;19;162348;-16
2022/01/03 18:21:51;;;;;;;2.60;2.50;;;;;;;;;;7330033;19;154169;-15
2022/01/03 18:24:23;;;;;;;3.33;3.13;;;;;;;;;;7330859;19;153539;-15
2022/01/03 18:26:54;;;;;;;3.70;3.40;;;;;;;;;;7326114;19;161994;-15
2022/01/03 18:29:28;;;;;;;4.20;3.90;;;;;;;;;;7325701;19;162471;-16
2022/01/03 18:31:59;;;;;;;4.10;3.70;;;;;;;;;;7334069;19;153871;-15
2022/01/03 18:34:31;;;;;;;4.82;4.47;;;;;;;;;;7328270;19;154033;-14
2022/01/03 18:37:10;;;;;;;4.50;4.22;;;;;;;;;;7329022;19;161939;-15
2022/01/03 18:39:44;;;;;;;4.55;4.25;;;;;;;;;;7330889;19;162582;-15
2022/01/03 18:42:19;;;;;;;4.22;3.88;;;;;;;;;;7329732;19;154090;-15
2022/01/03 18:44:51;;;;;;;4.93;4.63;;;;;;;;;;7332251;19;153756;-15
2022/01/03 18:47:24;;;;;;;4.15;3.95;;;;;;;;;;7333197;19;161929;-15
2022/01/03 18:49:56;;;;;;;5.27;4.93;;;;;;;;;;7331456;19;162510;-15
2022/01/03 18:52:38;;;;;;;5.22;4.93;;;;;;;;;;7333150;19;153918;-14
2022/01/03 18:55:11;;;;;;;4.55;4.35;;;;;;;;;;7333050;19;154019;-14
2022/01/03 18:57:42;;;;;;;5.07;4.78;;;;;;;;;;7329778;19;161784;-14
2022/01/03 19:00:15;;;;;;;5.40;5.07;;;;;;;;;;7327081;19;162603;-15
2022/01/03 19:02:46;;;;;;;4.72;4.38;;;;;;;;;;7333331;19;153999;-15
2022/01/03 19:05:17;;;;;;;4.30;3.97;;;;;;;;;;7332750;19;153570;-15
2022/01/03 19:07:51;;;;;;;4.63;4.32;;;;;;;;;;7332620;19;161817;-15
2022/01/03 19:10:25;;;;;;;4.30;4.00;;;;;;;;;;7331584;19;162346;-15
2022/01/03 19:12:58;;;;;;;4.50;4.20;;;;;;;;;;7331304;19;154057;-15
2022/01/03 19:15:32;;;;;;;4.30;4.00;;;;;;;;;;7327373;19;153618;-14
2022/01/03 19:18:06;;;;;;;4.28;3.97;;;;;;;;;;7329182;19;162023;-14
2022/01/03 19:20:42;;;;;;;4.13;3.92;;;;;;;;;;7323901;19;162347;-14
2022/01/03 19:23:18;;;;;;;4.60;4.30;;;;;;;;;;7330606;19;153955;-15
2022/01/03 19:25:49;;;;;;;4.38;4.18;;;;;;;;;;7327233;19;153537;-15
2022/01/03 19:28:23;;;;;;;4.15;3.92;;;;;;;;;;7330559;19;161789;-14
2022/01/03 19:30:56;;;;;;;3.70;3.50;;;;;;;;;;7327234;19;163053;-14
2022/01/03 19:39:00;;;;;;;3.92;3.72;;;;;;;;;;7331038;19;161924;-15
2022/01/03 19:41:31;;;;;;;3.88;3.67;;;;;;;;;;7331212;19;162551;-15
2022/01/03 19:44:08;;;;;;;4.05;3.85;;;;;;;;;;7331657;19;153959;-15
2022/01/03 19:46:42;;;;;;;4.00;3.80;;;;;;;;;;7331043;19;153576;-15
2022/01/03 19:49:13;;;;;;;3.83;3.63;;;;;;;;;;7329510;19;162043;-15
2022/01/03 19:51:48;;;;;;;3.72;3.53;;;;;;;;;;7321776;19;162681;-15
2022/01/03 19:54:22;;;;;;;3.90;3.70;;;;;;;;;;7336612;19;154015;-15
2022/01/03 19:56:54;;;;;;;4.18;3.97;;;;;;;;;;7337021;19;153519;-14
2022/01/03 19:59:30;;;;;;;4.40;4.10;;;;;;;;;;7336259;19;162016;-15
2022/01/03 20:02:13;;;;;;;3.90;3.70;;;;;;;;;;7337298;19;162469;-18
2022/01/03 20:04:53;;;;;;;4.10;3.83;;;;;;;;;;7337752;19;154305;-15
2022/01/03 20:07:35;;;;;;;4.43;4.18;;;;;;;;;;7334149;19;153539;-15
2022/01/03 20:10:23;;;;;;;4.80;4.50;;;;;;;;;;7334097;19;161923;-15
2022/01/03 20:13:07;;;;;;;5.35;4.85;;;;;;;;;;7337983;19;162784;-15
2022/01/03 20:15:44;;;;;;;5.15;4.85;;;;;;;;;;7332545;19;154349;-15
2022/01/03 20:18:15;;;;;;;5.63;5.22;;;;;;;;;;7333355;19;153540;-15
2022/01/03 20:20:47;;;;;;;5.80;4.90;;;;;;;;;;7330140;19;161883;-14
2022/01/03 20:23:22;;;;;;;5.03;4.63;;;;;;;;;;7332796;19;162556;-16
2022/01/03 20:26:03;;;;;;;7.13;5.20;;;;;;;;;;7335209;19;153999;-14
2022/01/03 20:28:42;;;;;;;5.30;4.80;;;;;;;;;;7334971;19;153586;-19
2022/01/03 20:31:17;;;;;;;5.20;4.70;;;;;;;;;;7333465;19;161906;-16
2022/01/03 20:33:54;;;;;;;5.40;4.90;;;;;;;;;;7335475;19;163023;-13
2022/01/03 20:36:30;;;;;;;5.85;4.72;;;;;;;;;;7336320;19;153923;-16
2022/01/03 20:39:04;;;;;;;5.60;5.20;;;;;;;;;;7334619;19;153786;-15
2022/01/03 20:41:40;;;;;;;6.00;5.50;;;;;;;;;;7336806;19;161816;-16
2022/01/03 20:44:13;;;;;;;5.55;5.15;;;;;;;;;;7333564;19;162395;-16
2022/01/03 20:46:45;;;;;;;6.22;5.72;;;;;;;;;;7335577;19;153946;-15
2022/01/03 20:49:16;;;;;;;5.63;5.22;;;;;;;;;;7335731;19;153620;-16
2022/01/03 20:51:51;;;;;;;5.57;5.18;;;;;;;;;;7335869;19;161902;-15
2022/01/03 20:54:22;;;;;;;5.40;5.03;;;;;;;;;;7336872;19;162422;-14
2022/01/03 20:56:56;;;;;;;5.60;5.20;;;;;;;;;;7335186;19;153962;-14
2022/01/03 20:59:30;;;;;;;4.95;4.60;;;;;;;;;;7334717;19;153575;-14
2022/01/03 21:02:01;;;;;;;5.05;4.65;;;;;;;;;;7336220;19;162020;-16
2022/01/03 21:04:32;;;;;;;5.53;5.13;;;;;;;;;;7333027;19;162397;-16
2022/01/03 21:07:06;;;;;;;4.95;4.65;;;;;;;;;;7335497;19;154088;-16
2022/01/03 21:09:37;;;;;;;4.72;4.47;;;;;;;;;;7336294;19;153737;-18
2022/01/03 21:12:12;;;;;;;4.85;4.55;;;;;;;;;;7336080;19;161828;-14
2022/01/03 21:14:44;;;;;;;4.70;4.40;;;;;;;;;;7333000;19;162364;-16
2022/01/03 21:17:15;;;;;;;4.65;4.35;;;;;;;;;;7331957;19;154031;-15
2022/01/03 21:19:48;;;;;;;4.70;4.30;;;;;;;;;;7335169;19;153475;-15
2022/01/03 21:22:20;;;;;;;4.72;4.43;;;;;;;;;;7336636;19;161927;-15
2022/01/03 21:24:52;;;;;;;4.80;4.50;;;;;;;;;;7332789;19;162370;-16
2022/01/03 21:27:26;;;;;;;5.18;4.78;;;;;;;;;;7336560;19;153974;-15
2022/01/03 21:29:57;;;;;;;4.57;4.18;;;;;;;;;;7334733;19;153614;-16
2022/01/03 21:32:29;;;;;;;4.80;4.40;;;;;;;;;;7333518;19;161975;-17
2022/01/03 21:35:00;;;;;;;4.93;4.47;;;;;;;;;;7334900;19;162375;-16
2022/01/03 21:37:31;;;;;;;4.90;4.60;;;;;;;;;;7333242;19;154223;-16
2022/01/03 21:40:03;;;;;;;4.60;4.32;;;;;;;;;;7334370;19;153603;-16
2022/01/03 21:42:41;;;;;;;4.60;4.30;;;;;;;;;;7332785;19;162615;-15
2022/01/03 21:45:13;;;;;;;4.20;4.00;;;;;;;;;;7334067;19;162341;-16
2022/01/03 21:47:44;;;;;;;4.88;4.50;;;;;;;;;;7336068;19;154149;-16
2022/01/03 21:50:15;;;;;;;5.18;4.80;;;;;;;;;;7332009;19;153927;-15
2022/01/03 21:52:50;;;;;;;4.43;4.13;;;;;;;;;;7331963;19;161787;-15
2022/01/03 21:55:21;;;;;;;4.80;4.50;;;;;;;;;;7334106;19;162392;-14
2022/01/03 21:57:55;;;;;;;4.13;3.83;;;;;;;;;;7333416;19;154333;-14
2022/01/03 22:00:27;;;;;;;4.72;4.43;;;;;;;;;;7333857;19;153724;-14
2022/01/03 22:02:59;;;;;;;4.50;4.20;;;;;;;;;;7333853;19;161849;-15
2022/01/03 22:05:30;;;;;;;4.57;4.20;;;;;;;;;;7332879;19;162603;-15
2022/01/03 22:08:02;;;;;;;5.00;4.60;;;;;;;;;;7333701;19;154316;-15
2022/01/03 22:10:33;;;;;;;4.22;3.97;;;;;;;;;;7332796;19;153656;-15
2022/01/03 22:13:07;;;;;;;4.50;4.18;;;;;;;;;;7333709;19;161660;-14
2022/01/03 22:15:38;;;;;;;3.97;3.70;;;;;;;;;;7331481;19;162161;-15
2022/01/03 22:18:10;;;;;;;3.90;3.70;;;;;;;;;;7334131;19;154602;-15
2022/01/03 22:20:41;;;;;;;4.75;4.35;;;;;;;;;;7333618;19;153529;-15
2022/01/03 22:23:12;;;;;;;4.55;4.22;;;;;;;;;;7333134;19;161872;-15
2022/01/03 22:25:43;;;;;;;4.13;3.92;;;;;;;;;;7331147;19;162702;-15
2022/01/03 22:28:18;;;;;;;3.97;3.78;;;;;;;;;;7332806;19;153985;-16
2022/01/03 22:30:49;;;;;;;4.07;3.88;;;;;;;;;;7331769;19;153610;-14
2022/01/03 22:33:21;;;;;;;4.07;3.88;;;;;;;;;;7332975;19;162041;-15
2022/01/03 22:35:52;;;;;;;4.10;3.90;;;;;;;;;;7329241;19;162577;-14
2022/01/03 22:38:24;;;;;;;4.43;4.13;;;;;;;;;;7326318;19;153984;-15
2022/01/03 22:40:56;;;;;;;4.05;3.80;;;;;;;;;;7332274;19;153577;-15
2022/01/03 22:43:29;;;;;;;4.22;4.00;;;;;;;;;;7328034;19;161811;-15
2022/01/03 22:46:01;;;;;;;3.67;3.47;;;;;;;;;;7330207;19;162460;-14
2022/01/03 22:48:32;;;;;;;4.35;3.90;;;;;;;;;;7324038;19;153640;-14
2022/01/03 22:51:04;;;;;;;4.07;3.78;;;;;;;;;;7325807;19;153529;-15
2022/01/03 22:53:35;;;;;;;3.80;3.50;;;;;;;;;;7329671;19;161792;-15
2022/01/03 22:56:07;;;;;;;3.90;3.70;;;;;;;;;;7331088;19;162663;-15
2022/01/03 22:58:41;;;;;;;3.97;3.78;;;;;;;;;;7327111;19;154274;-15
2022/01/03 23:01:14;;;;;;;3.80;3.60;;;;;;;;;;7327984;19;153611;-15
2022/01/03 23:03:46;;;;;;;4.25;3.90;;;;;;;;;;7330911;19;161892;-15
2022/01/03 23:06:19;;;;;;;3.60;3.40;;;;;;;;;;7332171;19;162412;-16
2022/01/03 23:08:50;;;;;;;4.00;3.80;;;;;;;;;;7332761;19;154136;-15
2022/01/03 23:11:23;;;;;;;3.65;3.45;;;;;;;;;;7331613;19;154079;-15
2022/01/03 23:13:58;;;;;;;3.47;3.25;;;;;;;;;;7331557;19;161812;-15
2022/01/03 23:16:29;;;;;;;4.10;3.80;;;;;;;;;;7328865;19;162445;-15
2022/01/03 23:19:01;;;;;;;3.60;3.40;;;;;;;;;;7332260;19;154078;-15
2022/01/03 23:21:32;;;;;;;4.28;3.97;;;;;;;;;;7328844;19;153827;-16
2022/01/03 23:24:03;;;;;;;3.75;3.55;;;;;;;;;;7321095;19;161878;-23
2022/01/03 23:26:35;;;;;;;4.03;3.72;;;;;;;;;;7331062;19;162576;-15
2022/01/03 23:29:09;;;;;;;3.75;3.55;;;;;;;;;;7337414;19;153977;-14
2022/01/03 23:31:40;;;;;;;3.95;3.72;;;;;;;;;;7336615;19;153570;-16
2022/01/03 23:34:18;;;;;;;4.10;3.80;;;;;;;;;;7335286;19;161961;-15
2022/01/03 23:36:50;;;;;;;3.70;3.50;;;;;;;;;;7335851;19;162371;-16
2022/01/03 23:39:22;;;;;;;3.65;3.40;;;;;;;;;;7338848;19;155449;-14
2022/01/03 23:41:53;;;;;;;3.60;3.40;;;;;;;;;;7333297;19;153624;-14
2022/01/03 23:44:31;;;;;;;3.53;3.33;;;;;;;;;;7330950;19;161819;-14
2022/01/03 23:47:02;;;;;;;4.03;3.72;;;;;;;;;;7332083;19;162465;-15
2022/01/03 23:49:34;;;;;;;3.85;3.55;;;;;;;;;;7335554;19;154007;-15
2022/01/03 23:52:06;;;;;;;3.17;2.97;;;;;;;;;;7331855;19;153658;-14
2022/01/03 23:54:37;;;;;;;3.70;3.50;;;;;;;;;;7332117;19;161909;-15
2022/01/03 23:57:09;;;;;;;5.28;3.38;;;;;;;;;;7332358;19;162503;-15
2022/01/03 23:59:43;;;;;;;3.33;3.13;;;;;;;;;;7332046;19;153990;-15
